Flight Track Log - Related Links

Times and Time Zones

All times are in EDT time to prevent confusion due to time zone crossing. See the AWE1890 flight status page for this flight to view local times or setup timezone preferences in your user account.

Time Position Orientation Groundspeed Altitude Reporting Facility
EDT Latitude Longitude Course Direction KTS MPH feet Rate Location/Type
Mon 07:33:00 PM 26.8661 -79.7642 51° Northeast  Level FlightAware Approximate
Mon 07:33:27 PM 26.7306 -79.9572 53° Northeast 230 265 5,200  Level Miami Center
Mon 07:34:00 PM 26.9441 -79.6562 55° Northeast  Level FlightAware Approximate
Mon 07:34:27 PM 26.7839 -79.9028 42° Northeast 257 296 8,100  Level Miami Center
Mon 07:35:00 PM 27.0132 -79.5403 61° Northeast  Level FlightAware Approximate
Mon 07:35:27 PM 26.8417 -79.8297 48° Northeast 277 319 10,800  Level Miami Center
Mon 07:36:00 PM 27.0850 -79.4308 53° Northeast  Level FlightAware Approximate
Mon 07:36:27 PM 26.8956 -79.7519 52° Northeast 324 373 12,000  Level Miami Center
Mon 07:37:00 PM 27.1591 -79.3197 53° Northeast  Level FlightAware Approximate
Mon 07:37:27 PM 26.9622 -79.6533 53° Northeast 368 423 13,700  Level Miami Center
Mon 07:38:00 PM 27.2337 -79.2078 53° Northeast  Level FlightAware Approximate
Mon 07:38:27 PM 27.0353 -79.5386 54° Northeast 402 463 15,100  Level Miami Center
Mon 07:39:27 PM 27.1064 -79.4306 54° Northeast 422 486 15,100 550 Level Miami Center
Mon 07:40:27 PM 27.1664 -79.3361 54° Northeast 416 479 16,200 1,500 Climbing Miami Center
Mon 07:41:27 PM 27.2350 -79.2300 54° Northeast 416 479 18,100 2,100 Climbing Miami Center
Mon 07:42:27 PM 27.3100 -79.1100 55° Northeast 421 484 20,400 2,000 Climbing Miami Center
Mon 07:43:27 PM 27.3847 -78.9969 53° Northeast 432 497 22,100 1,800 Climbing Miami Center
Mon 07:44:27 PM 27.4553 -78.8836 55° Northeast 449 517 24,000 1,700 Climbing Miami Center
Mon 07:45:27 PM 27.5236 -78.7792 54° Northeast 449 517 25,500 1,500 Climbing Miami Center
Mon 07:46:27 PM 27.5981 -78.6633 54° Northeast 449 517 27,000 1,300 Climbing Miami Center
Mon 07:47:27 PM 27.7017 -78.5758 37° Northeast 442 509 28,100 900 Climbing Miami Center
Mon 07:48:27 PM 27.8314 -78.5567 North 442 509 28,800 850 Climbing Miami Center
Mon 07:49:27 PM 27.9672 -78.5353 North 453 521 29,800 1,000 Climbing Miami Center
Mon 07:50:27 PM 28.0989 -78.5158 North 476 548 30,800 1,600 Climbing Miami Center
Mon 07:51:27 PM 28.2350 -78.4944 North 484 557 33,000 1,600 Climbing Miami Center
Mon 07:52:27 PM 28.3667 -78.4750 North 484 557 34,000 950 Climbing Miami Center
Mon 07:53:27 PM 28.5006 -78.4533 North 478 550 34,900 850 Climbing Miami Center
Mon 07:54:27 PM 28.6322 -78.4339 North 478 550 35,700 1,000 Climbing Miami Center
Mon 07:55:27 PM 28.7661 -78.4122 North 485 558 36,900 650 Climbing Miami Center
Mon 07:56:27 PM 28.8978 -78.3925 North 478 550 37,000 50 Climbing Miami Center
Mon 07:57:27 PM 29.0272 -78.3706 North 478 550 37,000  Level Miami Center
Mon 07:58:27 PM 29.1611 -78.3511 North 478 550 37,000  Level Miami Center
Mon 07:59:27 PM 29.2969 -78.3317 North 478 550 37,000  Level Miami Center
Mon 08:00:27 PM 29.4325 -78.3142 North 483 556 37,000  Level Miami Center
Mon 08:01:27 PM 29.5622 -78.2922 North 477 549 37,000  Level Miami Center
Mon 08:02:27 PM 29.6936 -78.2725 North 477 549 37,000  Level Miami Center
Mon 08:02:57 PM 29.7711 -78.2558 11° North 477 549 37,000  Level Jacksonville Center
Mon 08:03:57 PM 29.9058 -78.2350 North 477 549 37,000  Level Jacksonville Center
Mon 08:04:57 PM 30.0367 -78.2119 North 479 551 37,000  Level Jacksonville Center
Mon 08:05:57 PM 30.1736 -78.1933 North 499 574 37,000  Level Jacksonville Center
Mon 08:06:57 PM 30.3042 -78.1700 North 476 548 37,000  Level Jacksonville Center
Mon 08:07:57 PM 30.4431 -78.1392 11° North 492 566 37,000  Level Jacksonville Center
Mon 08:08:57 PM 30.5750 -78.0964 16° North 489 563 37,000  Level Jacksonville Center
Mon 08:09:57 PM 30.7089 -78.0511 16° North 485 558 37,000  Level Jacksonville Center
Mon 08:10:57 PM 30.8431 -78.0103 15° North 504 580 37,000  Level Jacksonville Center
Mon 08:11:57 PM 30.9606 -77.9703 16° North 492 566 37,000  Level Jacksonville Center
Mon 08:12:57 PM 31.0942 -77.9219 17° North 487 560 37,000  Level Jacksonville Center
Mon 08:13:56 PM 31.2278 -77.8714 18° North 492 566 37,000  Level Jacksonville Center
Mon 08:14:56 PM 31.3639 -77.8300 15° North 492 566 37,000  Level Jacksonville Center
Mon 08:15:56 PM 31.4986 -77.8006 11° North 492 566 37,000  Level Jacksonville Center
Mon 08:16:57 PM 31.6342 -77.7469 19° North 492 566 37,000  Level Jacksonville Center
Mon 08:17:56 PM 31.7700 -77.7003 16° North 492 566 37,000  Level Jacksonville Center
Mon 08:18:56 PM 31.9081 -77.6558 15° North 497 572 37,000  Level Jacksonville Center
Mon 08:19:56 PM 32.0417 -77.6114 16° North 497 572 37,000  Level Jacksonville Center
Mon 08:20:56 PM 32.1778 -77.5692 15° North 503 579 37,000 -50 Level Jacksonville Center
Mon 08:21:56 PM 32.3156 -77.5219 16° North 503 579 36,900  Descending Jacksonville Center
Mon 08:22:56 PM 32.4533 -77.4744 16° North 508 585 37,000 50 Climbing Jacksonville Center
Mon 08:23:57 PM 32.5894 -77.4317 15° North 508 585 37,000  Level Jacksonville Center
Mon 08:24:57 PM 32.7272 -77.3864 15° North 508 585 37,000  Level Jacksonville Center
Mon 08:26:43 PM 32.9686 -77.3019 16° North 493 567 37,000  Level Washington Center
Mon 08:27:43 PM 33.1111 -77.2550 15° North 510 587 37,000  Level Washington Center
Mon 08:28:42 PM 33.2472 -77.2081 16° North 510 587 37,000  Level Washington Center
Mon 08:29:42 PM 33.3856 -77.1611 16° North 510 587 37,000  Level Washington Center
Mon 08:30:43 PM 33.5258 -77.1114 16° North 515 593 37,000  Level Washington Center
Mon 08:31:42 PM 33.6683 -77.0667 15° North 515 593 37,000 -403 Level Washington Center
Mon 08:32:42 PM 33.8067 -77.0167 17° North 515 593 36,200 -1,240 Descending Washington Center
Mon 08:33:43 PM 33.9636 -76.9617 16° North 520 598 34,500 -1,600 Descending Washington Center
Mon 08:34:42 PM 34.1039 -76.9139 16° North 520 598 33,000 -1,513 Descending Washington Center
Mon 08:35:42 PM 34.2486 -76.8633 16° North 525 604 31,500 -1,050 Descending Washington Center
Mon 08:36:42 PM 34.3867 -76.8153 16° North 520 598 30,900 -250 Descending Washington Center
Mon 08:37:42 PM 34.5269 -76.7644 17° North 520 598 31,000 50 Climbing Washington Center
Mon 08:38:42 PM 34.6672 -76.7158 16° North 520 598 31,000  Level Washington Center
Mon 08:39:42 PM 34.8075 -76.6672 16° North 515 593 31,000  Level Washington Center
Mon 08:40:42 PM 34.9478 -76.6183 16° North 515 593 31,000  Level Washington Center
Mon 08:41:42 PM 35.0881 -76.5694 16° North 515 593 31,000  Level Washington Center
Mon 08:42:42 PM 35.2114 -76.5225 17° North 515 593 31,000  Level Washington Center
Mon 08:43:42 PM 35.3642 -76.4631 18° North 515 593 31,000  Level Washington Center
Mon 08:44:42 PM 35.5042 -76.4161 15° North 515 593 31,000  Level Washington Center
Mon 08:45:42 PM 35.6422 -76.3664 16° North 515 593 31,000  Level Washington Center
Mon 08:46:43 PM 35.7825 -76.3192 15° North 515 593 31,000  Level Washington Center
Mon 08:47:43 PM 35.9225 -76.2667 17° North 515 593 31,000 -50 Level Washington Center
Mon 08:48:42 PM 36.0606 -76.2114 18° North 515 593 30,900 -756 Descending Washington Center
Mon 08:49:42 PM 36.2006 -76.1661 15° North 515 593 29,500 -992 Descending Washington Center
Mon 08:50:43 PM 36.3342 -76.1181 16° North 509 586 28,900 -250 Descending Washington Center
Mon 08:51:42 PM 36.4681 -76.0672 17° North 504 580 29,000 50 Climbing Washington Center
Mon 08:52:43 PM 36.5892 -76.0214 17° North 494 568 29,000  Level Washington Center
Mon 08:53:42 PM 36.7375 -75.9678 16° North 499 574 29,000  Level Washington Center
Mon 08:54:43 PM 36.8711 -75.9164 17° North 499 574 29,000  Level Washington Center
Mon 08:55:43 PM 36.9964 -75.8700 16° North 504 580 29,000  Level Washington Center
Mon 08:56:42 PM 37.1342 -75.8186 17° North 511 588 29,000 -350 Level Washington Center
Mon 08:57:43 PM 37.2719 -75.7694 16° North 511 588 28,300 -1,041 Descending Washington Center
Mon 08:58:43 PM 37.4078 -75.7172 17° North 511 588 26,900 -1,500 Descending Washington Center
Mon 08:59:43 PM 37.5433 -75.6653 17° North 511 588 25,300 -1,160 Descending Washington Center
Mon 09:00:42 PM 37.6725 -75.6156 17° North 500 575 24,600 -1,050 Descending Washington Center
Mon 09:01:43 PM 37.7997 -75.5681 16° North 489 563 23,200 -1,438 Descending Washington Center
Mon 09:02:43 PM 37.9167 -75.5233 17° North 458 527 21,700 -1,100 Descending Washington Center
Mon 09:03:43 PM 38.0250 -75.4811 17° North 426 490 21,000 -600 Descending Washington Center
Mon 09:04:43 PM 38.1272 -75.4203 25° Northeast 407 468 20,500 -750 Descending Washington Center
Mon 09:05:43 PM 38.2272 -75.3592 26° Northeast 397 457 19,500 -1,059 Descending Washington Center
Mon 09:06:42 PM 38.3250 -75.2981 26° Northeast 392 451 18,400 -857 Descending Washington Center
Mon 09:07:42 PM 38.4208 -75.2339 28° Northeast 387 445 17,800 -744 Descending Washington Center
Mon 09:08:43 PM 38.5144 -75.1778 25° Northeast 382 440 16,900 -992 Descending Washington Center
Mon 09:09:43 PM 38.6164 -75.1372 17° North 382 440 15,800 -1,008 Descending Washington Center
Mon 09:10:42 PM 38.7225 -75.1181 North 382 440 14,900 -454 Descending Washington Center
Mon 09:11:42 PM 38.8289 -75.1014 North 382 440 14,900  Level Washington Center
Mon 09:12:43 PM 38.9372 -75.0819 North 382 440 14,900 -645 Level Washington Center
Mon 09:13:43 PM 39.0414 -75.0625 North 388 447 13,600 -1,613 Descending Washington Center
Mon 09:14:42 PM 39.1456 -75.0483 North 388 447 11,700 -1,462 Descending Washington Center
Mon 09:16:19 PM 39.3028 -75.0150 North 290 334 9,800 -1,179 Descending FAA TRACON SMA TRACON (SMA)
Mon 09:16:39 PM 39.3269 -75.0100 North 284 327 9,400 -1,171 Descending FAA TRACON SMA TRACON (SMA)
Mon 09:17:00 PM 39.3558 -75.0033 10° North 283 326 9,000 -600 Descending FAA TRACON SMA TRACON (SMA)
Mon 09:17:19 PM 39.3811 -74.9992 North 283 326 9,000  Level FAA TRACON SMA TRACON (SMA)
Mon 09:17:39 PM 39.4053 -74.9942 North 284 327 9,000  Level FAA TRACON SMA TRACON (SMA)
Mon 09:17:59 PM 39.4353 -74.9883 North 284 327 9,000 -600 Level FAA TRACON SMA TRACON (SMA)
Mon 09:18:19 PM 39.4594 -74.9878 North 281 323 8,600 -1,463 Descending FAA TRACON SMA TRACON (SMA)
Mon 09:18:40 PM 39.4797 -75.0019 332° Northwest 273 314 8,000 -1,463 Descending FAA TRACON SMA TRACON (SMA)
Mon 09:19:00 PM 39.4992 -75.0294 313° West 265 305 7,600 -1,231 Descending FAA TRACON SMA TRACON (SMA)
Mon 09:19:19 PM 39.5139 -75.0506 312° West 262 302 7,200 -923 Descending FAA TRACON SMA TRACON (SMA)
Mon 09:19:39 PM 39.5292 -75.0722 312° West 259 298 7,000 -300 Descending FAA TRACON SMA TRACON (SMA)
Mon 09:19:59 PM 39.5464 -75.0986 310° West 261 300 7,000  Level FAA TRACON SMA TRACON (SMA)
Mon 09:20:19 PM 39.5628 -75.1222 312° West 264 304 7,000  Level FAA TRACON SMA TRACON (SMA)
Mon 09:20:39 PM 39.5764 -75.1411 313° West 265 305 7,000 -150 Level FAA TRACON SMA TRACON (SMA)
Mon 09:20:59 PM 39.5944 -75.1686 310° West 265 305 6,900 -750 Descending FAA TRACON SMA TRACON (SMA)
Mon 09:21:19 PM 39.6117 -75.1936 312° West 264 304 6,500 -1,200 Descending FAA TRACON SMA TRACON (SMA)
Mon 09:21:39 PM 39.6264 -75.2153 311° West 261 300 6,100 -750 Descending FAA TRACON SMA TRACON (SMA)
Mon 09:21:59 PM 39.6403 -75.2408 305° West 279 321 6,000 -150 Descending FAA TRACON SMA TRACON (SMA)
Mon 09:22:19 PM 39.6544 -75.2744 299° West 274 315 6,000 -300 Level FAA TRACON SMA TRACON (SMA)
Mon 09:22:39 PM 39.6692 -75.2936 315° West 263 303 5,800 -1,650 Descending FAA TRACON SMA TRACON (SMA)
Mon 09:22:59 PM 39.6875 -75.3164 316° Northwest 267 307 4,900 -3,000 Descending FAA TRACON SMA TRACON (SMA)
Mon 09:23:19 PM 39.7075 -75.3442 313° West 277 319 3,800 -2,250 Descending FAA TRACON SMA TRACON (SMA)
Mon 09:23:39 PM 39.7217 -75.3656 311° West 275 316 3,400 -1,200 Descending FAA TRACON SMA TRACON (SMA)
Mon 09:23:59 PM 39.7386 -75.3883 314° West 245 282 3,000 -1,171 Descending FAA TRACON SMA TRACON (SMA)
Mon 09:24:20 PM 39.7608 -75.4036 332° Northwest 230 265 2,600 -1,171 Descending FAA TRACON SMA TRACON (SMA)
Mon 09:24:40 PM 39.7761 -75.4147 331° Northwest 224 258 2,200 -1,500 Descending FAA TRACON SMA TRACON (SMA)
Mon 09:25:00 PM 39.7956 -75.4228 342° North 215 247 1,600 -1,077 Descending FAA TRACON SMA TRACON (SMA)
Mon 09:25:19 PM 39.8156 -75.4217 North 184 212 1,500 -154 Descending FAA TRACON SMA TRACON (SMA)
Mon 09:25:39 PM 39.8283 -75.4114 32° Northeast 171 197 1,500  Level FAA TRACON SMA TRACON (SMA)

Login

Don't have an account? Register now (free) for customized features, flight alerts, and more!